sensor_id;sensor_type;location;lat;lon;timestamp;pressure;altitude;pressure_sealevel;temperature;humidity
47785;BME280;35233;55.686;37.848;2022-09-19T00:01:21;97291.22;;;16.83;61.20
47785;BME280;35233;55.686;37.848;2022-09-19T00:03:52;97283.63;;;16.78;61.22
47785;BME280;35233;55.686;37.848;2022-09-19T00:06:18;97280.00;;;16.79;61.31
47785;BME280;35233;55.686;37.848;2022-09-19T00:08:45;97261.44;;;16.78;61.33
47785;BME280;35233;55.686;37.848;2022-09-19T00:11:12;97269.00;;;16.72;61.31
47785;BME280;35233;55.686;37.848;2022-09-19T00:13:39;97275.50;;;16.80;61.36
47785;BME280;35233;55.686;37.848;2022-09-19T00:16:16;97271.41;;;16.75;61.48
47785;BME280;35233;55.686;37.848;2022-09-19T00:18:42;97249.22;;;16.75;61.43
47785;BME280;35233;55.686;37.848;2022-09-19T00:21:07;97258.06;;;16.75;61.50
47785;BME280;35233;55.686;37.848;2022-09-19T00:23:33;97262.69;;;16.73;61.54
47785;BME280;35233;55.686;37.848;2022-09-19T00:26:17;97260.31;;;16.70;61.71
47785;BME280;35233;55.686;37.848;2022-09-19T00:28:44;97253.84;;;16.73;61.45
47785;BME280;35233;55.686;37.848;2022-09-19T00:31:19;97243.47;;;16.70;61.73
47785;BME280;35233;55.686;37.848;2022-09-19T00:33:47;97242.78;;;16.68;61.68
47785;BME280;35233;55.686;37.848;2022-09-19T00:36:15;97236.44;;;16.69;61.46
47785;BME280;35233;55.686;37.848;2022-09-19T00:38:41;97229.72;;;16.65;61.62
47785;BME280;35233;55.686;37.848;2022-09-19T00:41:07;97237.28;;;16.69;61.59
47785;BME280;35233;55.686;37.848;2022-09-19T00:43:51;97233.78;;;16.69;61.59
47785;BME280;35233;55.686;37.848;2022-09-19T00:46:19;97220.31;;;16.61;61.74
47785;BME280;35233;55.686;37.848;2022-09-19T00:48:47;97210.91;;;16.66;61.79
47785;BME280;35233;55.686;37.848;2022-09-19T00:51:37;97218.91;;;16.66;61.63
47785;BME280;35233;55.686;37.848;2022-09-19T00:54:07;97208.13;;;16.68;61.84
47785;BME280;35233;55.686;37.848;2022-09-19T00:56:42;97202.06;;;16.66;61.68
47785;BME280;35233;55.686;37.848;2022-09-19T00:59:09;97202.34;;;16.63;61.99
47785;BME280;35233;55.686;37.848;2022-09-19T01:01:35;97206.69;;;16.64;61.73
47785;BME280;35233;55.686;37.848;2022-09-19T01:04:01;97214.69;;;16.64;61.74
47785;BME280;35233;55.686;37.848;2022-09-19T01:12:02;97209.50;;;16.62;62.02
47785;BME280;35233;55.686;37.848;2022-09-19T01:17:22;97210.50;;;16.61;61.97
47785;BME280;35233;55.686;37.848;2022-09-19T01:28:41;97184.97;;;16.59;62.03
47785;BME280;35233;55.686;37.848;2022-09-19T01:31:15;97166.59;;;16.56;62.19
47785;BME280;35233;55.686;37.848;2022-09-19T01:36:17;97173.59;;;16.57;62.01
47785;BME280;35233;55.686;37.848;2022-09-19T01:38:46;97193.09;;;16.57;62.17
47785;BME280;35233;55.686;37.848;2022-09-19T01:43:51;97166.88;;;16.52;62.07
47785;BME280;35233;55.686;37.848;2022-09-19T01:51:48;97173.75;;;16.55;62.07
47785;BME280;35233;55.686;37.848;2022-09-19T01:57:27;97185.94;;;16.58;62.17
47785;BME280;35233;55.686;37.848;2022-09-19T02:05:50;97168.44;;;16.55;62.34
47785;BME280;35233;55.686;37.848;2022-09-19T02:11:20;97167.44;;;16.56;62.33
47785;BME280;35233;55.686;37.848;2022-09-19T02:13:56;97157.78;;;16.55;62.15
47785;BME280;35233;55.686;37.848;2022-09-19T02:16:32;97166.44;;;16.57;62.18
47785;BME280;35233;55.686;37.848;2022-09-19T02:19:08;97159.44;;;16.56;62.25
47785;BME280;35233;55.686;37.848;2022-09-19T02:21:52;97160.44;;;16.55;62.29
47785;BME280;35233;55.686;37.848;2022-09-19T02:24:24;97151.56;;;16.55;62.10
47785;BME280;35233;55.686;37.848;2022-09-19T02:26:54;97158.59;;;16.56;62.26
47785;BME280;35233;55.686;37.848;2022-09-19T02:29:27;97142.03;;;16.52;62.26
47785;BME280;35233;55.686;37.848;2022-09-19T02:31:56;97150.63;;;16.56;62.50
47785;BME280;35233;55.686;37.848;2022-09-19T02:34:22;97146.25;;;16.55;62.40
47785;BME280;35233;55.686;37.848;2022-09-19T02:39:55;97142.75;;;16.54;62.41
47785;BME280;35233;55.686;37.848;2022-09-19T02:43:02;97144.28;;;16.57;62.43
47785;BME280;35233;55.686;37.848;2022-09-19T02:45:59;97137.28;;;16.56;62.40
47785;BME280;35233;55.686;37.848;2022-09-19T02:48:55;97138.13;;;16.56;62.35
47785;BME280;35233;55.686;37.848;2022-09-19T02:51:27;97129.28;;;16.56;62.65
47785;BME280;35233;55.686;37.848;2022-09-19T02:53:57;97135.59;;;16.55;62.34
47785;BME280;35233;55.686;37.848;2022-09-19T02:56:27;97128.59;;;16.53;62.56
47785;BME280;35233;55.686;37.848;2022-09-19T02:59:03;97127.59;;;16.55;62.59
47785;BME280;35233;55.686;37.848;2022-09-19T03:01:32;97124.25;;;16.52;62.43
47785;BME280;35233;55.686;37.848;2022-09-19T03:04:02;97131.13;;;16.55;62.78
47785;BME280;35233;55.686;37.848;2022-09-19T03:09:25;97128.59;;;16.53;62.62
47785;BME280;35233;55.686;37.848;2022-09-19T03:12:06;97126.03;;;16.52;62.52
47785;BME280;35233;55.686;37.848;2022-09-19T03:14:34;97118.34;;;16.49;62.80
47785;BME280;35233;55.686;37.848;2022-09-19T03:17:01;97113.72;;;16.51;62.66
47785;BME280;35233;55.686;37.848;2022-09-19T03:19:30;97114.56;;;16.51;62.49
47785;BME280;35233;55.686;37.848;2022-09-19T03:21:57;97123.97;;;16.56;62.60
47785;BME280;35233;55.686;37.848;2022-09-19T03:24:24;97123.81;;;16.57;62.59
47785;BME280;35233;55.686;37.848;2022-09-19T03:26:51;97117.63;;;16.57;62.58
47785;BME280;35233;55.686;37.848;2022-09-19T03:29:17;97111.31;;;16.58;62.56
47785;BME280;35233;55.686;37.848;2022-09-19T03:31:43;97120.56;;;16.63;62.44
47785;BME280;35233;55.686;37.848;2022-09-19T03:34:11;97112.28;;;16.66;62.56
47785;BME280;35233;55.686;37.848;2022-09-19T03:36:38;97108.94;;;16.64;62.39
47785;BME280;35233;55.686;37.848;2022-09-19T03:39:05;97063.53;;;16.37;62.20
47785;BME280;35233;55.686;37.848;2022-09-19T03:41:31;97104.28;;;16.66;62.44
47785;BME280;35233;55.686;37.848;2022-09-19T03:43:58;97101.22;;;16.61;62.50
47785;BME280;35233;55.686;37.848;2022-09-19T03:46:29;97108.66;;;16.67;62.47
47785;BME280;35233;55.686;37.848;2022-09-19T03:48:58;97104.16;;;16.68;62.42
47785;BME280;35233;55.686;37.848;2022-09-19T03:51:26;97103.16;;;16.69;62.46
47785;BME280;35233;55.686;37.848;2022-09-19T03:53:51;97095.16;;;16.69;62.28
47785;BME280;35233;55.686;37.848;2022-09-19T03:56:17;97090.13;;;16.75;62.21
47785;BME280;35233;55.686;37.848;2022-09-19T03:58:43;97087.31;;;16.77;62.26
47785;BME280;35233;55.686;37.848;2022-09-19T04:01:10;97094.56;;;16.75;62.09
47785;BME280;35233;55.686;37.848;2022-09-19T04:03:41;97089.53;;;16.72;62.16
47785;BME280;35233;55.686;37.848;2022-09-19T04:06:07;97105.41;;;16.73;62.42
47785;BME280;35233;55.686;37.848;2022-09-19T04:08:33;97091.53;;;16.80;62.15
47785;BME280;35233;55.686;37.848;2022-09-19T04:10:59;97083.66;;;16.78;61.96
47785;BME280;35233;55.686;37.848;2022-09-19T04:13:25;97098.53;;;16.81;62.11
47785;BME280;35233;55.686;37.848;2022-09-19T04:15:52;97106.22;;;16.74;62.13
47785;BME280;35233;55.686;37.848;2022-09-19T04:18:20;97107.34;;;16.71;62.06
47785;BME280;35233;55.686;37.848;2022-09-19T04:20:46;97112.16;;;16.68;62.17
47785;BME280;35233;55.686;37.848;2022-09-19T04:23:13;97126.47;;;16.67;62.42
47785;BME280;35233;55.686;37.848;2022-09-19T04:25:42;97129.25;;;16.65;62.31
47785;BME280;35233;55.686;37.848;2022-09-19T04:28:09;97125.47;;;16.68;62.37
47785;BME280;35233;55.686;37.848;2022-09-19T04:30:38;97122.34;;;16.72;62.32
47785;BME280;35233;55.686;37.848;2022-09-19T04:33:07;97124.78;;;16.75;62.18
47785;BME280;35233;55.686;37.848;2022-09-19T04:35:34;97126.59;;;16.85;62.06
47785;BME280;35233;55.686;37.848;2022-09-19T04:38:05;97127.84;;;16.90;62.40
47785;BME280;35233;55.686;37.848;2022-09-19T04:40:42;97130.34;;;16.92;62.81
47785;BME280;35233;55.686;37.848;2022-09-19T04:43:09;97128.09;;;16.97;62.94
47785;BME280;35233;55.686;37.848;2022-09-19T04:45:36;97134.25;;;16.97;62.79
47785;BME280;35233;55.686;37.848;2022-09-19T04:48:03;97118.69;;;17.03;62.30
47785;BME280;35233;55.686;37.848;2022-09-19T04:50:32;97130.72;;;17.07;62.56
47785;BME280;35233;55.686;37.848;2022-09-19T04:52:58;97113.88;;;17.06;62.21
47785;BME280;35233;55.686;37.848;2022-09-19T04:55:24;97126.94;;;17.09;62.33
47785;BME280;35233;55.686;37.848;2022-09-19T04:57:51;97135.63;;;17.11;62.29
47785;BME280;35233;55.686;37.848;2022-09-19T05:00:17;97126.50;;;17.14;62.08
47785;BME280;35233;55.686;37.848;2022-09-19T05:03:03;97129.72;;;17.17;62.08
47785;BME280;35233;55.686;37.848;2022-09-19T05:05:31;97133.22;;;17.18;61.97
47785;BME280;35233;55.686;37.848;2022-09-19T05:07:57;97132.78;;;17.23;61.62
47785;BME280;35233;55.686;37.848;2022-09-19T05:10:23;97131.78;;;17.24;61.74
47785;BME280;35233;55.686;37.848;2022-09-19T05:12:48;97138.22;;;17.31;61.52
47785;BME280;35233;55.686;37.848;2022-09-19T05:15:14;97127.50;;;17.40;61.25
47785;BME280;35233;55.686;37.848;2022-09-19T05:17:40;97127.34;;;17.42;61.19
47785;BME280;35233;55.686;37.848;2022-09-19T05:20:05;97116.13;;;17.38;61.18
47785;BME280;35233;55.686;37.848;2022-09-19T05:22:31;97127.25;;;17.34;61.29
47785;BME280;35233;55.686;37.848;2022-09-19T05:24:56;97128.59;;;17.20;61.65
47785;BME280;35233;55.686;37.848;2022-09-19T05:27:32;97140.38;;;17.17;61.74
47785;BME280;35233;55.686;37.848;2022-09-19T05:30:01;97139.69;;;17.15;61.85
47785;BME280;35233;55.686;37.848;2022-09-19T05:32:28;97132.38;;;17.17;61.70
47785;BME280;35233;55.686;37.848;2022-09-19T05:34:54;97137.13;;;17.24;61.74
47785;BME280;35233;55.686;37.848;2022-09-19T05:37:26;97144.53;;;17.30;61.66
47785;BME280;35233;55.686;37.848;2022-09-19T05:39:52;97148.44;;;17.35;61.46
47785;BME280;35233;55.686;37.848;2022-09-19T05:42:18;97146.31;;;17.39;61.47
47785;BME280;35233;55.686;37.848;2022-09-19T05:44:43;97157.56;;;17.42;61.49
47785;BME280;35233;55.686;37.848;2022-09-19T05:47:09;97148.25;;;17.47;61.17
47785;BME280;35233;55.686;37.848;2022-09-19T05:49:35;97148.56;;;17.43;61.26
47785;BME280;35233;55.686;37.848;2022-09-19T05:52:02;97157.50;;;17.52;61.17
47785;BME280;35233;55.686;37.848;2022-09-19T05:54:47;97160.00;;;17.54;61.17
47785;BME280;35233;55.686;37.848;2022-09-19T05:57:13;97162.84;;;17.52;61.03
47785;BME280;35233;55.686;37.848;2022-09-19T05:59:38;97164.81;;;17.50;61.22
47785;BME280;35233;55.686;37.848;2022-09-19T06:02:05;97164.50;;;17.53;61.05
47785;BME280;35233;55.686;37.848;2022-09-19T06:04:31;97166.50;;;17.51;61.36
47785;BME280;35233;55.686;37.848;2022-09-19T06:06:57;97164.63;;;17.34;61.73
47785;BME280;35233;55.686;37.848;2022-09-19T06:09:23;97165.94;;;17.20;61.88
47785;BME280;35233;55.686;37.848;2022-09-19T06:11:50;97156.50;;;17.26;61.68
47785;BME280;35233;55.686;37.848;2022-09-19T06:14:15;97163.66;;;17.25;61.91
47785;BME280;35233;55.686;37.848;2022-09-19T06:16:41;97159.84;;;17.28;61.60
47785;BME280;35233;55.686;37.848;2022-09-19T06:19:09;97149.47;;;17.25;61.54
47785;BME280;35233;55.686;37.848;2022-09-19T06:21:35;97149.28;;;17.36;61.26
47785;BME280;35233;55.686;37.848;2022-09-19T06:24:00;97171.00;;;17.51;60.77
47785;BME280;35233;55.686;37.848;2022-09-19T06:26:30;97155.28;;;17.48;60.68
47785;BME280;35233;55.686;37.848;2022-09-19T06:28:55;97163.34;;;17.38;60.92
47785;BME280;35233;55.686;37.848;2022-09-19T06:31:21;97152.84;;;17.27;61.00
47785;BME280;35233;55.686;37.848;2022-09-19T06:33:46;97164.38;;;17.17;61.31
47785;BME280;35233;55.686;37.848;2022-09-19T06:36:12;97174.22;;;17.07;61.58
47785;BME280;35233;55.686;37.848;2022-09-19T06:38:37;97176.91;;;17.07;61.46
47785;BME280;35233;55.686;37.848;2022-09-19T06:41:09;97186.91;;;17.05;61.21
47785;BME280;35233;55.686;37.848;2022-09-19T06:43:34;97169.19;;;17.14;61.08
47785;BME280;35233;55.686;37.848;2022-09-19T06:46:00;97175.28;;;17.34;60.47
47785;BME280;35233;55.686;37.848;2022-09-19T06:48:25;97175.53;;;17.68;59.86
47785;BME280;35233;55.686;37.848;2022-09-19T06:50:50;97183.34;;;17.89;58.95
47785;BME280;35233;55.686;37.848;2022-09-19T06:53:16;97168.28;;;17.88;58.89
47785;BME280;35233;55.686;37.848;2022-09-19T06:55:43;97181.81;;;17.86;58.89
47785;BME280;35233;55.686;37.848;2022-09-19T06:58:09;97168.94;;;17.72;58.83
47785;BME280;35233;55.686;37.848;2022-09-19T07:00:36;97185.31;;;17.87;58.72
47785;BME280;35233;55.686;37.848;2022-09-19T07:03:08;97182.06;;;17.93;58.62
47785;BME280;35233;55.686;37.848;2022-09-19T07:05:39;97192.13;;;17.99;58.19
47785;BME280;35233;55.686;37.848;2022-09-19T07:08:06;97197.84;;;17.77;58.60
47785;BME280;35233;55.686;37.848;2022-09-19T07:10:32;97203.00;;;17.60;59.32
47785;BME280;35233;55.686;37.848;2022-09-19T07:13:00;97212.28;;;17.56;59.32
47785;BME280;35233;55.686;37.848;2022-09-19T07:15:28;97208.63;;;17.57;59.40
47785;BME280;35233;55.686;37.848;2022-09-19T07:17:57;97211.44;;;17.56;59.42
47785;BME280;35233;55.686;37.848;2022-09-19T07:20:23;97220.16;;;17.48;59.56
47785;BME280;35233;55.686;37.848;2022-09-19T07:23:03;97217.59;;;17.29;59.88
47785;BME280;35233;55.686;37.848;2022-09-19T07:25:29;97222.91;;;17.19;60.23
47785;BME280;35233;55.686;37.848;2022-09-19T07:27:58;97234.13;;;17.32;59.90
47785;BME280;35233;55.686;37.848;2022-09-19T07:30:24;97227.91;;;17.51;59.43
47785;BME280;35233;55.686;37.848;2022-09-19T07:32:50;97227.84;;;17.61;58.70
47785;BME280;35233;55.686;37.848;2022-09-19T07:35:18;97235.53;;;17.83;58.28
47785;BME280;35233;55.686;37.848;2022-09-19T07:37:53;97232.31;;;17.70;58.31
47785;BME280;35233;55.686;37.848;2022-09-19T07:40:19;97243.41;;;17.65;58.71
47785;BME280;35233;55.686;37.848;2022-09-19T07:42:45;97230.28;;;17.54;58.85
47785;BME280;35233;55.686;37.848;2022-09-19T07:45:11;97240.25;;;17.52;58.71
47785;BME280;35233;55.686;37.848;2022-09-19T07:47:43;97236.06;;;17.50;58.74
47785;BME280;35233;55.686;37.848;2022-09-19T07:50:11;97232.25;;;17.52;58.78
47785;BME280;35233;55.686;37.848;2022-09-19T07:52:38;97243.03;;;17.60;58.45
47785;BME280;35233;55.686;37.848;2022-09-19T07:55:04;97237.03;;;17.49;58.77
47785;BME280;35233;55.686;37.848;2022-09-19T07:57:30;97240.72;;;17.38;58.92
47785;BME280;35233;55.686;37.848;2022-09-19T07:59:56;97241.31;;;17.32;59.04
47785;BME280;35233;55.686;37.848;2022-09-19T08:02:22;97253.66;;;17.33;59.20
47785;BME280;35233;55.686;37.848;2022-09-19T08:04:48;97239.91;;;17.28;59.08
47785;BME280;35233;55.686;37.848;2022-09-19T08:07:14;97248.91;;;17.27;59.13
47785;BME280;35233;55.686;37.848;2022-09-19T08:09:39;97242.19;;;17.23;59.16
47785;BME280;35233;55.686;37.848;2022-09-19T08:12:07;97242.75;;;17.16;59.32
47785;BME280;35233;55.686;37.848;2022-09-19T08:14:35;97235.16;;;17.12;59.47
47785;BME280;35233;55.686;37.848;2022-09-19T08:17:00;97245.53;;;17.25;59.18
47785;BME280;35233;55.686;37.848;2022-09-19T08:19:26;97251.84;;;17.24;58.95
47785;BME280;35233;55.686;37.848;2022-09-19T08:21:51;97242.75;;;17.16;59.26
47785;BME280;35233;55.686;37.848;2022-09-19T08:24:17;97245.53;;;17.25;58.92
47785;BME280;35233;55.686;37.848;2022-09-19T08:26:43;97249.16;;;17.33;58.49
47785;BME280;35233;55.686;37.848;2022-09-19T08:29:09;97235.94;;;17.41;58.16
47785;BME280;35233;55.686;37.848;2022-09-19T08:31:35;97236.75;;;17.42;58.15
47785;BME280;35233;55.686;37.848;2022-09-19T08:34:02;97257.16;;;17.43;58.09
47785;BME280;35233;55.686;37.848;2022-09-19T08:36:28;97243.50;;;17.46;57.97
47785;BME280;35233;55.686;37.848;2022-09-19T08:38:53;97246.59;;;17.41;57.99
47785;BME280;35233;55.686;37.848;2022-09-19T08:44:43;97252.78;;;17.42;57.80
47785;BME280;35233;55.686;37.848;2022-09-19T08:47:13;97248.19;;;17.34;58.13
47785;BME280;35233;55.686;37.848;2022-09-19T08:49:49;97244.56;;;17.26;58.34
47785;BME280;35233;55.686;37.848;2022-09-19T08:52:36;97266.47;;;17.19;58.54
47785;BME280;35233;55.686;37.848;2022-09-19T08:55:07;97243.03;;;17.13;58.67
47785;BME280;35233;55.686;37.848;2022-09-19T08:57:38;97255.81;;;17.19;58.41
47785;BME280;35233;55.686;37.848;2022-09-19T09:00:20;97261.00;;;17.11;58.57
47785;BME280;35233;55.686;37.848;2022-09-19T09:08:44;97255.38;;;17.14;58.68
47785;BME280;35233;55.686;37.848;2022-09-19T09:17:06;97257.59;;;17.19;57.91
47785;BME280;35233;55.686;37.848;2022-09-19T09:22:46;97256.47;;;17.22;57.93
47785;BME280;35233;55.686;37.848;2022-09-19T09:27:56;97255.13;;;17.08;58.13
47785;BME280;35233;55.686;37.848;2022-09-19T09:30:24;97263.25;;;17.06;58.19
47785;BME280;35233;55.686;37.848;2022-09-19T09:32:55;97272.25;;;16.95;58.42
47785;BME280;35233;55.686;37.848;2022-09-19T09:35:37;97271.69;;;16.92;58.57
47785;BME280;35233;55.686;37.848;2022-09-19T09:40:55;97303.69;;;16.82;58.75
47785;BME280;35233;55.686;37.848;2022-09-19T09:49:15;97294.44;;;16.96;58.12
47785;BME280;35233;55.686;37.848;2022-09-19T10:00:31;97281.78;;;17.17;57.55
47785;BME280;35233;55.686;37.848;2022-09-19T10:03:45;97294.56;;;17.14;57.73
47785;BME280;35233;55.686;37.848;2022-09-19T10:06:34;97294.56;;;17.04;57.78
47785;BME280;35233;55.686;37.848;2022-09-19T10:09:13;97292.19;;;17.11;57.59
47785;BME280;35233;55.686;37.848;2022-09-19T10:12:02;97302.84;;;17.20;57.51
47785;BME280;35233;55.686;37.848;2022-09-19T10:14:34;97290.47;;;17.29;56.96
47785;BME280;35233;55.686;37.848;2022-09-19T10:17:02;97295.81;;;17.19;57.41
47785;BME280;35233;55.686;37.848;2022-09-19T10:19:47;97289.81;;;17.08;57.59
47785;BME280;35233;55.686;37.848;2022-09-19T10:22:16;97292.47;;;16.98;57.90
47785;BME280;35233;55.686;37.848;2022-09-19T10:24:49;97292.47;;;16.98;57.89
47785;BME280;35233;55.686;37.848;2022-09-19T10:30:13;97285.47;;;16.87;57.95
47785;BME280;35233;55.686;37.848;2022-09-19T10:32:41;97281.25;;;16.85;58.16
47785;BME280;35233;55.686;37.848;2022-09-19T10:35:31;97270.16;;;16.80;58.39
47785;BME280;35233;55.686;37.848;2022-09-19T10:43:22;97265.75;;;16.69;58.61
47785;BME280;35233;55.686;37.848;2022-09-19T10:45:48;97247.25;;;16.67;58.56
47785;BME280;35233;55.686;37.848;2022-09-19T10:48:26;97252.44;;;16.69;58.41
47785;BME280;35233;55.686;37.848;2022-09-19T10:50:54;97256.50;;;16.63;58.51
47785;BME280;35233;55.686;37.848;2022-09-19T10:53:26;97258.88;;;16.66;58.34
47785;BME280;35233;55.686;37.848;2022-09-19T10:55:53;97250.31;;;16.72;58.10
47785;BME280;35233;55.686;37.848;2022-09-19T10:58:24;97234.50;;;16.61;58.57
47785;BME280;35233;55.686;37.848;2022-09-19T11:01:03;97243.88;;;16.65;58.38
47785;BME280;35233;55.686;37.848;2022-09-19T11:03:34;97235.75;;;16.57;58.39
47785;BME280;35233;55.686;37.848;2022-09-19T11:06:22;97236.31;;;16.51;58.76
47785;BME280;35233;55.686;37.848;2022-09-19T11:08:52;97241.91;;;16.48;58.71
47785;BME280;35233;55.686;37.848;2022-09-19T11:11:30;97250.59;;;16.40;59.06
47785;BME280;35233;55.686;37.848;2022-09-19T11:14:23;97249.47;;;16.43;58.80
47785;BME280;35233;55.686;37.848;2022-09-19T11:19:45;97253.53;;;16.37;58.92
47785;BME280;35233;55.686;37.848;2022-09-19T11:30:18;97235.72;;;16.18;59.45
47785;BME280;35233;55.686;37.848;2022-09-19T11:33:07;97239.50;;;16.16;59.65
47785;BME280;35233;55.686;37.848;2022-09-19T11:38:29;97231.34;;;16.17;59.50
47785;BME280;35233;55.686;37.848;2022-09-19T11:52:03;97248.75;;;16.21;59.25
47785;BME280;35233;55.686;37.848;2022-09-19T12:00:25;97271.72;;;16.13;59.28
47785;BME280;35233;55.686;37.848;2022-09-19T12:05:53;97264.41;;;16.05;59.56
47785;BME280;35233;55.686;37.848;2022-09-19T12:11:29;97271.00;;;16.01;59.58
47785;BME280;35233;55.686;37.848;2022-09-19T12:14:02;97279.44;;;16.06;59.53
47785;BME280;35233;55.686;37.848;2022-09-19T12:16:38;97293.44;;;16.08;59.25
47785;BME280;35233;55.686;37.848;2022-09-19T12:19:09;97279.16;;;16.09;59.37
47785;BME280;35233;55.686;37.848;2022-09-19T12:21:45;97292.84;;;15.95;59.40
47785;BME280;35233;55.686;37.848;2022-09-19T12:24:22;97303.78;;;16.01;59.58
47785;BME280;35233;55.686;37.848;2022-09-19T12:27:09;97302.97;;;16.01;59.49
47785;BME280;35233;55.686;37.848;2022-09-19T12:35:40;97298.72;;;15.89;59.55
47785;BME280;35233;55.686;37.848;2022-09-19T12:40:52;97305.19;;;16.05;59.07
47785;BME280;35233;55.686;37.848;2022-09-19T12:54:45;97313.72;;;15.99;59.11
47785;BME280;35233;55.686;37.848;2022-09-19T12:57:18;97304.72;;;15.91;59.12
47785;BME280;35233;55.686;37.848;2022-09-19T12:59:48;97321.16;;;15.96;59.25
47785;BME280;35233;55.686;37.848;2022-09-19T13:12:19;97316.00;;;16.04;58.90
47785;BME280;35233;55.686;37.848;2022-09-19T13:14:53;97313.63;;;16.11;58.79
47785;BME280;35233;55.686;37.848;2022-09-19T13:17:21;97316.31;;;16.11;58.52
47785;BME280;35233;55.686;37.848;2022-09-19T13:20:21;97326.25;;;16.09;58.73
47785;BME280;35233;55.686;37.848;2022-09-19T13:23:15;97338.41;;;16.01;58.87
47785;BME280;35233;55.686;37.848;2022-09-19T13:34:37;97355.97;;;16.14;58.66
47785;BME280;35233;55.686;37.848;2022-09-19T13:40:20;97353.09;;;15.96;58.88
47785;BME280;35233;55.686;37.848;2022-09-19T13:42:59;97372.72;;;15.95;58.93
47785;BME280;35233;55.686;37.848;2022-09-19T13:51:10;97372.81;;;15.83;58.98
47785;BME280;35233;55.686;37.848;2022-09-19T13:53:44;97370.69;;;15.77;59.38
47785;BME280;35233;55.686;37.848;2022-09-19T13:56:25;97366.75;;;15.81;59.24
47785;BME280;35233;55.686;37.848;2022-09-19T13:59:26;97382.63;;;15.83;59.09
47785;BME280;35233;55.686;37.848;2022-09-19T14:02:27;97385.81;;;15.77;59.16
47785;BME280;35233;55.686;37.848;2022-09-19T14:05:01;97378.94;;;15.74;59.09
47785;BME280;35233;55.686;37.848;2022-09-19T14:18:41;97396.34;;;15.67;59.53
47785;BME280;35233;55.686;37.848;2022-09-19T14:21:09;97400.13;;;15.65;59.45
47785;BME280;35233;55.686;37.848;2022-09-19T14:23:39;97404.03;;;15.60;59.55
47785;BME280;35233;55.686;37.848;2022-09-19T14:28:48;97398.13;;;15.57;59.77
47785;BME280;35233;55.686;37.848;2022-09-19T14:34:49;97414.19;;;15.55;59.69
47785;BME280;35233;55.686;37.848;2022-09-19T14:37:51;97424.00;;;15.55;59.75
47785;BME280;35233;55.686;37.848;2022-09-19T14:48:28;97442.56;;;15.45;60.17
47785;BME280;35233;55.686;37.848;2022-09-19T14:51:08;97438.34;;;15.43;60.17
47785;BME280;35233;55.686;37.848;2022-09-19T14:53:39;97431.31;;;15.42;60.03
47785;BME280;35233;55.686;37.848;2022-09-19T14:56:11;97446.34;;;15.43;60.06
47785;BME280;35233;55.686;37.848;2022-09-19T14:58:38;97456.66;;;15.36;59.99
47785;BME280;35233;55.686;37.848;2022-09-19T15:01:32;97456.38;;;15.39;59.81
47785;BME280;35233;55.686;37.848;2022-09-19T15:04:10;97446.69;;;15.38;59.97
47785;BME280;35233;55.686;37.848;2022-09-19T15:06:46;97469.81;;;15.37;59.86
47785;BME280;35233;55.686;37.848;2022-09-19T15:11:51;97453.13;;;15.35;60.05
47785;BME280;35233;55.686;37.848;2022-09-19T15:14:25;97467.28;;;15.36;59.95
47785;BME280;35233;55.686;37.848;2022-09-19T15:17:11;97476.81;;;15.38;60.04
47785;BME280;35233;55.686;37.848;2022-09-19T15:19:40;97473.44;;;15.36;59.99
47785;BME280;35233;55.686;37.848;2022-09-19T15:22:33;97462.19;;;15.33;60.27
47785;BME280;35233;55.686;37.848;2022-09-19T15:25:06;97477.94;;;15.36;60.13
47785;BME280;35233;55.686;37.848;2022-09-19T15:27:44;97504.91;;;15.31;60.09
47785;BME280;35233;55.686;37.848;2022-09-19T15:30:37;97497.03;;;15.30;59.96
47785;BME280;35233;55.686;37.848;2022-09-19T15:33:05;97485.09;;;15.24;60.34
47785;BME280;35233;55.686;37.848;2022-09-19T15:35:33;97500.66;;;15.29;60.11
47785;BME280;35233;55.686;37.848;2022-09-19T15:38:06;97504.31;;;15.28;60.07
47785;BME280;35233;55.686;37.848;2022-09-19T15:40:34;97526.53;;;15.27;60.21
47785;BME280;35233;55.686;37.848;2022-09-19T15:43:01;97538.16;;;15.26;60.20
47785;BME280;35233;55.686;37.848;2022-09-19T15:45:37;97526.78;;;15.24;60.28
47785;BME280;35233;55.686;37.848;2022-09-19T15:51:03;97532.97;;;15.24;60.12
47785;BME280;35233;55.686;37.848;2022-09-19T15:53:35;97520.28;;;15.16;60.41
47785;BME280;35233;55.686;37.848;2022-09-19T15:56:08;97536.84;;;15.20;60.42
47785;BME280;35233;55.686;37.848;2022-09-19T15:58:43;97543.41;;;15.16;60.52
47785;BME280;35233;55.686;37.848;2022-09-19T16:01:16;97537.09;;;15.17;60.33
47785;BME280;35233;55.686;37.848;2022-09-19T16:03:55;97549.41;;;15.18;60.36
47785;BME280;35233;55.686;37.848;2022-09-19T16:06:32;97554.97;;;15.15;60.41
47785;BME280;35233;55.686;37.848;2022-09-19T16:09:19;97558.50;;;15.15;60.40
47785;BME280;35233;55.686;37.848;2022-09-19T16:11:54;97573.59;;;15.15;60.46
47785;BME280;35233;55.686;37.848;2022-09-19T16:14:47;97558.72;;;15.12;60.42
47785;BME280;35233;55.686;37.848;2022-09-19T16:17:13;97561.53;;;15.11;60.60
47785;BME280;35233;55.686;37.848;2022-09-19T16:19:47;97584.47;;;15.12;60.56
47785;BME280;35233;55.686;37.848;2022-09-19T16:22:14;97580.13;;;15.11;60.60
47785;BME280;35233;55.686;37.848;2022-09-19T16:24:58;97604.91;;;15.11;60.51
47785;BME280;35233;55.686;37.848;2022-09-19T16:27:28;97599.97;;;15.07;60.52
47785;BME280;35233;55.686;37.848;2022-09-19T16:29:57;97616.53;;;15.10;60.56
47785;BME280;35233;55.686;37.848;2022-09-19T16:32:26;97608.66;;;15.09;60.68
47785;BME280;35233;55.686;37.848;2022-09-19T16:34:56;97626.69;;;15.05;60.78
47785;BME280;35233;55.686;37.848;2022-09-19T16:37:49;97625.84;;;15.05;60.79
47785;BME280;35233;55.686;37.848;2022-09-19T16:40:26;97626.09;;;15.02;60.98